createdAt,value
2019-01-14T00:02:01.934Z,97469.30
2019-01-14T00:04:31.511Z,97472.11
2019-01-14T00:07:01.268Z,97472.00
2019-01-14T00:09:31.065Z,97478.30
2019-01-14T00:12:00.398Z,97486.91
2019-01-14T00:14:29.268Z,97494.28
2019-01-14T00:16:58.223Z,97502.27
2019-01-14T00:19:27.198Z,97497.51
2019-01-14T00:21:56.084Z,97505.34
2019-01-14T00:24:24.891Z,97499.95
2019-01-14T00:26:54.125Z,97513.94
2019-01-14T00:29:22.922Z,97511.94
2019-01-14T00:31:51.836Z,97514.48
2019-01-14T00:34:21.156Z,97514.39
2019-01-14T00:36:50.047Z,97508.93
2019-01-14T00:39:18.853Z,97509.14
2019-01-14T00:41:47.729Z,97521.28
2019-01-14T00:44:16.700Z,97506.36
2019-01-14T00:46:45.512Z,97513.98
2019-01-14T00:49:14.405Z,97514.66
2019-01-14T00:51:43.281Z,97527.23
2019-01-14T00:54:12.166Z,97527.73
2019-01-14T00:56:41.137Z,97534.98
2019-01-14T00:59:09.974Z,97540.70
2019-01-14T01:01:38.912Z,97552.89
2019-01-14T01:04:07.961Z,97559.39
2019-01-14T01:06:36.937Z,97571.40
2019-01-14T01:09:08.175Z,97567.95
2019-01-14T01:11:37.130Z,97580.39
2019-01-14T01:14:06.027Z,97573.77
2019-01-14T01:16:34.996Z,97563.82
2019-01-14T01:19:04.598Z,97569.30
2019-01-14T01:21:34.401Z,97569.19
2019-01-14T01:24:03.428Z,97569.53
2019-01-14T01:26:32.395Z,97570.32
2019-01-14T01:29:01.210Z,97584.54
2019-01-14T01:31:30.114Z,97585.24
2019-01-14T01:33:59.104Z,97590.97
2019-01-14T01:36:31.859Z,97597.69
2019-01-14T01:38:58.511Z,97596.52
2019-01-14T01:41:27.695Z,97607.94
2019-01-14T01:43:57.165Z,97612.03
2019-01-14T01:46:26.026Z,97608.93
2019-01-14T01:48:55.046Z,97611.44
2019-01-14T01:51:23.988Z,97612.53
2019-01-14T01:53:52.905Z,97617.14
2019-01-14T01:56:21.783Z,97618.70
2019-01-14T01:58:50.717Z,97627.41
2019-01-14T02:01:19.501Z,97630.48
2019-01-14T02:03:48.312Z,97631.55
2019-01-14T02:06:17.182Z,97644.73
2019-01-14T02:08:46.277Z,97645.69
2019-01-14T02:11:15.295Z,97647.93
2019-01-14T02:13:44.190Z,97637.14
2019-01-14T02:16:13.088Z,97641.89
2019-01-14T02:18:41.987Z,97642.48
2019-01-14T02:21:10.861Z,97644.58
2019-01-14T02:23:39.756Z,97634.15
2019-01-14T02:26:08.629Z,97636.42
2019-01-14T02:28:37.539Z,97636.89
2019-01-14T02:31:07.529Z,97631.46
2019-01-14T02:33:36.343Z,97629.78
2019-01-14T02:36:05.584Z,97635.38
2019-01-14T02:38:34.759Z,97630.03
2019-01-14T02:41:03.848Z,97630.03
2019-01-14T02:43:32.733Z,97644.50
2019-01-14T02:46:01.641Z,97637.75
2019-01-14T02:48:30.537Z,97656.13
2019-01-14T02:50:59.640Z,97647.70
2019-01-14T02:53:28.462Z,97659.45
2019-01-14T02:55:57.263Z,97667.73
2019-01-14T02:58:26.077Z,97666.77
2019-01-14T03:00:55.068Z,97680.88
2019-01-14T03:03:23.863Z,97683.84
2019-01-14T03:05:53.060Z,97688.85
2019-01-14T03:08:22.193Z,97688.85
2019-01-14T03:10:51.353Z,97704.52
2019-01-14T03:13:20.508Z,97708.17
2019-01-14T03:15:49.680Z,97724.16
2019-01-14T03:18:18.692Z,97730.09
2019-01-14T03:20:47.802Z,97731.89
2019-01-14T03:23:16.706Z,97731.77
2019-01-14T03:25:45.806Z,97728.90
2019-01-14T03:28:14.955Z,97732.10
2019-01-14T03:30:44.007Z,97739.94
2019-01-14T03:33:12.809Z,97740.53
2019-01-14T03:35:41.866Z,97729.17
2019-01-14T03:38:10.751Z,97734.38
2019-01-14T03:40:40.337Z,97735.19
2019-01-14T03:43:10.318Z,97738.63
2019-01-14T03:45:39.261Z,97743.72
2019-01-14T03:48:08.213Z,97747.64
2019-01-14T03:50:37.195Z,97756.55
2019-01-14T03:53:06.158Z,97764.00
2019-01-14T03:55:35.106Z,97768.51
2019-01-14T03:58:04.281Z,97774.32
2019-01-14T04:00:33.240Z,97786.77
2019-01-14T04:03:02.128Z,97783.11
2019-01-14T04:05:31.080Z,97796.62
2019-01-14T04:08:00.051Z,97799.10
2019-01-14T04:10:28.893Z,97803.52
2019-01-14T04:12:57.855Z,97801.83
2019-01-14T04:15:26.818Z,97805.28
2019-01-14T04:17:55.615Z,97802.80
2019-01-14T04:20:25.178Z,97810.75
2019-01-14T04:22:54.094Z,97818.91
2019-01-14T04:25:23.338Z,97802.80
2019-01-14T04:27:52.340Z,97816.89
2019-01-14T04:30:23.247Z,97820.69
2019-01-14T04:32:52.357Z,97816.19
2019-01-14T04:35:22.685Z,97816.77
2019-01-14T04:37:52.115Z,97821.66
2019-01-14T04:40:21.064Z,97816.44
2019-01-14T04:42:49.955Z,97818.20
2019-01-14T04:45:18.996Z,97813.45
2019-01-14T04:47:47.984Z,97812.86
2019-01-14T04:50:20.326Z,97810.50
2019-01-14T04:52:49.232Z,97815.13
2019-01-14T04:55:18.205Z,97822.37
2019-01-14T04:57:47.092Z,97824.02
2019-01-14T05:00:21.735Z,97822.12
2019-01-14T05:02:51.001Z,97827.33
2019-01-14T05:05:19.973Z,97824.85
2019-01-14T05:07:48.984Z,97835.16
2019-01-14T05:10:18.892Z,97841.00
2019-01-14T05:12:47.939Z,97847.52
2019-01-14T05:15:17.001Z,97851.44
2019-01-14T05:17:46.010Z,97851.44
2019-01-14T05:20:23.105Z,97849.92
2019-01-14T05:22:52.420Z,97860.36
2019-01-14T05:25:21.545Z,97859.27
2019-01-14T05:27:50.859Z,97866.05
2019-01-14T05:30:20.000Z,97868.31
2019-01-14T05:32:49.175Z,97870.64
2019-01-14T05:35:18.396Z,97878.62
2019-01-14T05:37:47.382Z,97883.73
2019-01-14T05:40:18.421Z,97878.25
2019-01-14T05:42:47.418Z,97880.83
2019-01-14T05:45:16.560Z,97887.02
2019-01-14T05:47:45.608Z,97883.09
2019-01-14T05:50:16.074Z,97883.81
2019-01-14T05:52:45.352Z,97894.88
2019-01-14T05:55:14.550Z,97898.80
2019-01-14T05:57:43.714Z,97894.72
2019-01-14T06:00:22.667Z,97897.80
2019-01-14T06:02:51.654Z,97895.30
2019-01-14T06:05:20.663Z,97895.55
2019-01-14T06:07:49.621Z,97905.02
2019-01-14T06:10:18.489Z,97910.36
2019-01-14T06:12:47.496Z,97914.41
2019-01-14T06:15:16.863Z,97916.76
2019-01-14T06:17:46.013Z,97916.52
2019-01-14T06:20:16.333Z,97921.25
2019-01-14T06:22:45.257Z,97916.41
2019-01-14T06:25:16.821Z,97917.78
2019-01-14T06:27:45.703Z,97918.63
2019-01-14T06:30:17.359Z,97922.66
2019-01-14T06:32:46.342Z,97913.88
2019-01-14T06:35:15.471Z,97925.98
2019-01-14T06:37:44.447Z,97925.02
2019-01-14T06:40:14.609Z,97930.35
2019-01-14T06:42:43.557Z,97936.88
2019-01-14T06:45:12.820Z,97937.94
2019-01-14T06:47:41.759Z,97943.41
2019-01-14T06:50:12.394Z,97952.28
2019-01-14T06:52:41.302Z,97957.30
2019-01-14T06:55:10.296Z,97962.13
2019-01-14T06:57:39.274Z,97975.17
2019-01-14T07:00:10.369Z,97982.17
2019-01-14T07:02:39.305Z,97983.82
2019-01-14T07:05:08.792Z,97977.18
2019-01-14T07:07:37.750Z,97996.63
2019-01-14T07:10:09.149Z,97998.56
2019-01-14T07:12:37.995Z,97987.75
2019-01-14T07:15:07.868Z,98004.25
2019-01-14T07:17:36.808Z,98001.64
2019-01-14T07:20:06.304Z,97999.95
2019-01-14T07:22:35.164Z,98005.83
2019-01-14T07:25:04.884Z,98001.17
2019-01-14T07:27:33.750Z,98003.41
2019-01-14T07:30:02.687Z,98005.55
2019-01-14T07:32:31.557Z,98006.27
2019-01-14T07:35:02.235Z,98009.48
2019-01-14T07:37:31.369Z,98015.38
2019-01-14T07:40:00.283Z,98018.11
2019-01-14T07:42:29.138Z,98019.05
2019-01-14T07:44:58.051Z,98021.18
2019-01-14T07:47:26.857Z,98034.59
2019-01-14T07:49:55.737Z,98038.41
2019-01-14T07:52:24.685Z,98037.99
2019-01-14T07:54:53.581Z,98043.81
2019-01-14T07:57:22.572Z,98043.38
2019-01-14T07:59:51.530Z,98040.65
2019-01-14T08:02:20.397Z,98043.52
2019-01-14T08:04:49.470Z,98057.84
2019-01-14T08:07:18.673Z,98057.84
2019-01-14T08:09:47.852Z,98042.21
2019-01-14T08:12:17.433Z,98038.88
2019-01-14T08:14:47.387Z,98046.16
2019-01-14T08:17:17.329Z,98058.42
2019-01-14T08:19:46.436Z,98065.55
2019-01-14T08:22:15.586Z,98063.69
2019-01-14T08:24:44.655Z,98066.30
2019-01-14T08:27:13.730Z,98072.98
2019-01-14T08:29:42.704Z,98087.94
2019-01-14T08:32:11.743Z,98101.19
2019-01-14T08:34:40.845Z,98105.78
2019-01-14T08:37:10.011Z,98110.70
2019-01-14T08:39:39.131Z,98106.65
2019-01-14T08:42:09.338Z,98114.52
2019-01-14T08:44:43.492Z,98104.32
2019-01-14T08:47:12.526Z,98101.70
2019-01-14T08:49:41.411Z,98110.83
2019-01-14T08:52:10.292Z,98108.80
2019-01-14T08:54:39.171Z,98102.16
2019-01-14T08:57:08.121Z,98106.75
2019-01-14T08:59:37.116Z,98122.12
2019-01-14T09:02:06.189Z,98121.89
2019-01-14T09:04:35.305Z,98133.03
2019-01-14T09:07:04.437Z,98128.36
2019-01-14T09:09:33.353Z,98141.98
2019-01-14T09:12:02.319Z,98150.51
2019-01-14T09:14:31.281Z,98150.91
2019-01-14T09:17:00.218Z,98158.77
2019-01-14T09:19:29.099Z,98165.16
2019-01-14T09:21:58.048Z,98163.30
2019-01-14T09:24:26.982Z,98162.02
2019-01-14T09:26:55.872Z,98163.95
2019-01-14T09:29:24.670Z,98166.78
2019-01-14T09:31:53.653Z,98171.08
2019-01-14T09:34:22.713Z,98169.73
2019-01-14T09:36:51.592Z,98173.33
2019-01-14T09:39:20.456Z,98168.09
2019-01-14T09:41:49.893Z,98162.08
2019-01-14T09:44:18.800Z,98166.84
2019-01-14T09:46:47.603Z,98172.14
2019-01-14T09:49:16.545Z,98172.84
2019-01-14T09:51:45.509Z,98188.76
2019-01-14T09:54:14.448Z,98177.37
2019-01-14T09:56:43.250Z,98184.27
2019-01-14T09:59:12.108Z,98178.12
2019-01-14T10:01:41.068Z,98177.02
2019-01-14T10:04:09.857Z,98180.08
2019-01-14T10:06:38.726Z,98179.97
2019-01-14T10:09:08.666Z,98190.55
2019-01-14T10:11:37.641Z,98182.00
2019-01-14T10:14:06.863Z,98190.47
2019-01-14T10:16:35.800Z,98186.70
2019-01-14T10:19:05.255Z,98178.52
2019-01-14T10:21:34.278Z,98186.84
2019-01-14T10:24:03.173Z,98185.30
2019-01-14T10:26:31.988Z,98181.16
2019-01-14T10:29:00.836Z,98185.56
2019-01-14T10:31:29.840Z,98189.02
2019-01-14T10:33:59.654Z,98187.66
2019-01-14T10:36:28.849Z,98183.28
2019-01-14T10:38:58.006Z,98182.58
2019-01-14T10:41:27.168Z,98164.20
2019-01-14T10:43:56.044Z,98170.34
2019-01-14T10:46:25.001Z,98173.30
2019-01-14T10:48:53.984Z,98165.13
2019-01-14T10:51:22.942Z,98179.71
2019-01-14T10:53:52.412Z,98185.80
2019-01-14T10:56:21.358Z,98183.80
2019-01-14T10:58:50.223Z,98185.30
2019-01-14T11:01:19.378Z,98185.95
2019-01-14T11:03:48.301Z,98185.97
2019-01-14T11:06:17.277Z,98174.69
2019-01-14T11:08:46.237Z,98184.97
2019-01-14T11:11:15.131Z,98163.14
2019-01-14T11:13:43.995Z,98175.99
2019-01-14T11:16:12.955Z,98169.27
2019-01-14T11:18:49.184Z,98172.48
2019-01-14T11:21:18.121Z,98166.14
2019-01-14T11:23:46.904Z,98158.72
2019-01-14T11:26:15.963Z,98158.72
2019-01-14T11:28:44.941Z,98167.91
2019-01-14T11:31:13.800Z,98159.30
2019-01-14T11:33:42.773Z,98158.02
2019-01-14T11:36:11.765Z,98157.45
2019-01-14T11:38:49.256Z,98163.84
2019-01-14T11:41:18.468Z,98166.03
2019-01-14T11:43:47.409Z,98160.03
2019-01-14T11:46:16.204Z,98160.03
2019-01-14T11:48:45.255Z,98167.38
2019-01-14T11:51:14.090Z,98160.14
2019-01-14T11:53:43.140Z,98169.39
2019-01-14T11:56:12.103Z,98167.88
2019-01-14T11:58:40.963Z,98161.94
2019-01-14T12:01:12.187Z,98157.81
2019-01-14T12:03:41.021Z,98146.38
2019-01-14T12:06:09.894Z,98165.05
2019-01-14T12:08:38.709Z,98145.58
2019-01-14T12:11:07.571Z,98153.42
2019-01-14T12:13:36.457Z,98151.17
2019-01-14T12:16:05.618Z,98165.69
2019-01-14T12:18:34.795Z,98159.25
2019-01-14T12:21:04.270Z,98150.34
2019-01-14T12:23:33.108Z,98151.77
2019-01-14T12:26:02.042Z,98157.46
2019-01-14T12:28:31.012Z,98155.44
2019-01-14T12:30:59.967Z,98156.28
2019-01-14T12:33:28.992Z,98150.81
2019-01-14T12:35:58.176Z,98148.78
2019-01-14T12:38:27.331Z,98130.72
2019-01-14T12:40:56.362Z,98148.89
2019-01-14T12:43:25.566Z,98147.84
2019-01-14T12:45:54.510Z,98144.86
2019-01-14T12:48:23.477Z,98151.06
2019-01-14T12:50:52.367Z,98165.91
2019-01-14T12:53:21.250Z,98173.47
2019-01-14T12:55:50.107Z,98201.23
2019-01-14T12:58:19.006Z,98235.34
2019-01-14T13:00:48.039Z,98281.13
2019-01-14T13:03:16.912Z,98296.42
2019-01-14T13:05:45.785Z,98300.16
2019-01-14T13:08:14.674Z,98296.64
2019-01-14T13:10:43.464Z,98320.05
2019-01-14T13:13:12.435Z,98311.31
2019-01-14T13:15:41.301Z,98316.20
2019-01-14T13:18:10.133Z,98321.95
2019-01-14T13:20:39.009Z,98322.45
2019-01-14T13:23:08.064Z,98324.17
2019-01-14T13:25:36.874Z,98318.44
2019-01-14T13:28:06.135Z,98310.11
2019-01-14T13:30:35.084Z,98316.90
2019-01-14T13:33:04.540Z,98313.36
2019-01-14T13:35:33.549Z,98327.00
2019-01-14T13:38:02.429Z,98327.73
2019-01-14T13:40:31.380Z,98323.45
2019-01-14T13:43:00.763Z,98314.55
2019-01-14T13:45:29.876Z,98339.86
2019-01-14T13:47:59.043Z,98353.69
2019-01-14T13:50:28.129Z,98366.88
2019-01-14T13:52:57.071Z,98374.51
2019-01-14T13:55:26.158Z,98386.28
2019-01-14T13:57:59.718Z,98394.31
2019-01-14T14:00:27.358Z,98397.21
2019-01-14T14:02:56.222Z,98403.22
2019-01-14T14:05:25.238Z,98412.30
2019-01-14T14:07:54.167Z,98414.75
2019-01-14T14:10:28.602Z,98412.06
2019-01-14T14:12:57.638Z,98422.44
2019-01-14T14:15:26.783Z,98429.03
2019-01-14T14:17:56.689Z,98431.72
2019-01-14T14:20:25.965Z,98447.66
2019-01-14T14:22:54.838Z,98443.01
2019-01-14T14:25:23.803Z,98443.00
2019-01-14T14:27:52.610Z,98465.95
2019-01-14T14:30:27.389Z,98453.66
2019-01-14T14:32:56.543Z,98460.01
2019-01-14T14:35:25.489Z,98471.06
2019-01-14T14:38:01.005Z,98471.91
2019-01-14T14:40:25.145Z,98485.44
2019-01-14T14:42:54.386Z,98479.85
2019-01-14T14:45:23.351Z,98479.28
2019-01-14T14:47:52.344Z,98484.38
2019-01-14T14:50:21.420Z,98483.93
2019-01-14T14:52:50.597Z,98486.34
2019-01-14T14:55:19.473Z,98500.42
2019-01-14T14:57:48.425Z,98512.92
2019-01-14T15:00:19.772Z,98514.70
2019-01-14T15:02:48.824Z,98521.70
2019-01-14T15:05:17.980Z,98524.58
2019-01-14T15:07:46.851Z,98528.59
2019-01-14T15:10:17.547Z,98519.21
2019-01-14T15:12:46.487Z,98526.38
2019-01-14T15:15:17.325Z,98531.80
2019-01-14T15:17:46.268Z,98528.84
2019-01-14T15:20:16.927Z,98542.77
2019-01-14T15:22:45.803Z,98545.45
2019-01-14T15:25:14.910Z,98548.08
2019-01-14T15:27:43.802Z,98553.33
2019-01-14T15:30:27.081Z,98566.86
2019-01-14T15:32:56.027Z,98574.88
2019-01-14T15:35:25.377Z,98587.09
2019-01-14T15:37:54.463Z,98596.55
2019-01-14T15:40:24.540Z,98603.09
2019-01-14T15:42:53.596Z,98603.15
2019-01-14T15:45:24.092Z,98601.80
2019-01-14T15:47:52.973Z,98618.13
2019-01-14T15:50:21.913Z,98620.56
2019-01-14T15:52:50.887Z,98627.95
2019-01-14T15:55:22.240Z,98627.92
2019-01-14T15:57:51.599Z,98627.10
2019-01-14T16:00:20.963Z,98641.61
2019-01-14T16:02:50.123Z,98647.93
2019-01-14T16:05:19.106Z,98648.72
2019-01-14T16:07:48.070Z,98651.20
2019-01-14T16:10:19.048Z,98651.55
2019-01-14T16:12:48.173Z,98654.05
2019-01-14T16:15:17.139Z,98660.37
2019-01-14T16:17:46.905Z,98658.86
2019-01-14T16:20:17.711Z,98655.66
2019-01-14T16:22:47.206Z,98663.70
2019-01-14T16:25:16.176Z,98671.19
2019-01-14T16:27:45.131Z,98672.65
2019-01-14T16:30:16.623Z,98668.95
2019-01-14T16:32:45.433Z,98669.86
2019-01-14T16:35:14.402Z,98667.66
2019-01-14T16:37:43.668Z,98669.78
2019-01-14T16:40:17.982Z,98669.52
2019-01-14T16:42:43.498Z,98684.03
2019-01-14T16:45:15.263Z,98690.38
2019-01-14T16:47:44.249Z,98692.08
2019-01-14T16:50:13.500Z,98705.30
2019-01-14T16:52:42.461Z,98698.60
2019-01-14T16:55:13.249Z,98697.53
2019-01-14T16:57:42.223Z,98704.02
2019-01-14T17:00:16.744Z,98708.31
2019-01-14T17:02:45.761Z,98711.81
2019-01-14T17:05:15.464Z,98722.35
2019-01-14T17:07:44.346Z,98718.36
2019-01-14T17:10:14.722Z,98729.27
2019-01-14T17:12:43.754Z,98734.19
2019-01-14T17:15:13.186Z,98740.50
2019-01-14T17:17:42.148Z,98743.50
2019-01-14T17:20:14.947Z,98744.66
2019-01-14T17:22:43.904Z,98756.67
2019-01-14T17:25:13.419Z,98751.84
2019-01-14T17:27:42.281Z,98765.77
2019-01-14T17:30:12.957Z,98772.48
2019-01-14T17:32:41.952Z,98772.48
2019-01-14T17:35:11.032Z,98783.64
2019-01-14T17:37:39.987Z,98779.44
2019-01-14T17:40:11.589Z,98787.23
2019-01-14T17:42:40.398Z,98781.55
2019-01-14T17:45:10.048Z,98800.05
2019-01-14T17:47:39.458Z,98786.02
2019-01-14T17:50:12.030Z,98790.79
2019-01-14T17:52:41.157Z,98803.50
2019-01-14T17:55:10.181Z,98805.88
2019-01-14T17:57:39.583Z,98811.23
2019-01-14T18:00:36.731Z,98814.48
2019-01-14T18:03:05.645Z,98820.25
2019-01-14T18:05:34.529Z,98815.96
2019-01-14T18:08:03.534Z,98820.70
2019-01-14T18:10:39.707Z,98823.36
2019-01-14T18:13:03.025Z,98838.59
2019-01-14T18:15:31.937Z,98838.80
2019-01-14T18:18:00.740Z,98833.77
2019-01-14T18:20:29.704Z,98841.73
2019-01-14T18:22:58.496Z,98846.85
2019-01-14T18:25:27.407Z,98853.92
2019-01-14T18:27:56.348Z,98844.17
2019-01-14T18:30:25.246Z,98851.41
2019-01-14T18:32:54.131Z,98864.72
2019-01-14T18:35:23.038Z,98866.86
2019-01-14T18:37:51.951Z,98873.56
2019-01-14T18:40:20.934Z,98878.16
2019-01-14T18:42:49.805Z,98873.94
2019-01-14T18:45:20.150Z,98883.34
2019-01-14T18:47:49.318Z,98881.64
2019-01-14T18:50:22.801Z,98888.09
2019-01-14T18:52:51.751Z,98890.61
2019-01-14T18:55:20.707Z,98891.38
2019-01-14T18:57:49.783Z,98891.91
2019-01-14T19:00:23.405Z,98903.59
2019-01-14T19:02:52.383Z,98901.36
2019-01-14T19:05:21.270Z,98895.52
2019-01-14T19:07:50.400Z,98907.81
2019-01-14T19:10:19.582Z,98909.07
2019-01-14T19:12:48.659Z,98914.19
2019-01-14T19:15:19.308Z,98922.30
2019-01-14T19:17:48.604Z,98922.42
2019-01-14T19:20:19.760Z,98929.11
2019-01-14T19:22:48.700Z,98928.83
2019-01-14T19:25:17.665Z,98934.09
2019-01-14T19:27:46.616Z,98940.25
2019-01-14T19:30:17.193Z,98937.12
2019-01-14T19:32:46.179Z,98955.23
2019-01-14T19:35:15.238Z,98961.46
2019-01-14T19:37:44.181Z,98961.46
2019-01-14T19:40:15.092Z,98968.53
2019-01-14T19:42:44.208Z,98966.53
2019-01-14T19:45:13.492Z,98967.60
2019-01-14T19:47:42.355Z,98974.14
2019-01-14T19:50:17.674Z,98984.01
2019-01-14T19:52:46.612Z,98982.40
2019-01-14T19:55:15.616Z,98984.47
2019-01-14T19:57:44.577Z,98986.47
2019-01-14T20:00:16.851Z,98990.69
2019-01-14T20:02:45.737Z,98995.43
2019-01-14T20:05:14.972Z,99001.97
2019-01-14T20:07:43.872Z,99009.20
2019-01-14T20:10:13.871Z,99006.28
2019-01-14T20:12:42.831Z,99014.41
2019-01-14T20:15:13.209Z,99015.70
2019-01-14T20:17:42.980Z,99016.50
2019-01-14T20:20:12.203Z,99014.08
2019-01-14T20:22:41.257Z,99023.25
2019-01-14T20:25:10.745Z,99017.90
2019-01-14T20:27:39.888Z,99018.21
2019-01-14T20:30:19.187Z,99021.58
2019-01-14T20:32:48.252Z,99023.00
2019-01-14T20:35:17.224Z,99021.42
2019-01-14T20:37:46.095Z,99020.38
2019-01-14T20:40:15.826Z,99028.17
2019-01-14T20:42:45.163Z,99030.17
2019-01-14T20:45:15.106Z,99022.01
2019-01-14T20:47:44.163Z,99023.47
2019-01-14T20:50:15.909Z,99022.38
2019-01-14T20:52:44.969Z,99013.93
2019-01-14T20:55:14.225Z,99019.86
2019-01-14T20:57:43.927Z,99014.45
2019-01-14T21:00:15.558Z,99023.14
2019-01-14T21:02:44.502Z,99029.80
2019-01-14T21:05:14.363Z,99019.78
2019-01-14T21:07:44.293Z,99023.77
2019-01-14T21:10:15.380Z,99024.78
2019-01-14T21:12:44.423Z,99029.80
2019-01-14T21:15:14.456Z,99034.09
2019-01-14T21:17:44.502Z,99033.14
2019-01-14T21:20:16.334Z,99035.42
2019-01-14T21:22:45.496Z,99037.94
2019-01-14T21:25:14.608Z,99038.27
2019-01-14T21:27:43.561Z,99036.31
2019-01-14T21:30:15.302Z,99029.37
2019-01-14T21:32:44.805Z,99027.50
2019-01-14T21:35:14.026Z,99033.13
2019-01-14T21:37:43.718Z,99031.45
2019-01-14T21:40:13.218Z,99039.30
2019-01-14T21:42:42.278Z,99033.14
2019-01-14T21:45:12.105Z,99049.34
2019-01-14T21:47:41.163Z,99042.66
2019-01-14T21:50:12.947Z,99054.19
2019-01-14T21:52:42.110Z,99066.50
2019-01-14T21:55:13.248Z,99070.45
2019-01-14T21:57:42.209Z,99068.88
2019-01-14T22:02:40.646Z,99069.05
2019-01-14T22:05:09.547Z,99074.64
2019-01-14T22:07:38.440Z,99068.74
2019-01-14T22:10:10.144Z,99077.81
2019-01-14T22:12:39.094Z,99084.02
2019-01-14T22:15:08.470Z,99082.59
2019-01-14T22:17:37.349Z,99080.58
2019-01-14T22:20:09.347Z,99084.69
2019-01-14T22:22:38.293Z,99083.20
2019-01-14T22:25:08.194Z,99078.25
2019-01-14T22:27:37.146Z,99078.98
2019-01-14T22:30:10.383Z,99076.00
2019-01-14T22:32:39.332Z,99080.41
2019-01-14T22:35:08.362Z,99074.62
2019-01-14T22:37:37.350Z,99082.16
2019-01-14T22:40:07.325Z,99076.50
2019-01-14T22:42:36.296Z,99089.87
2019-01-14T22:45:06.169Z,99087.80
2019-01-14T22:47:35.137Z,99088.39
2019-01-14T22:50:05.698Z,99094.09
2019-01-14T22:52:34.642Z,99097.80
2019-01-14T22:55:04.037Z,99098.72
2019-01-14T22:57:32.837Z,99102.98
2019-01-14T23:00:01.649Z,99106.97
2019-01-14T23:02:30.789Z,99115.44
2019-01-14T23:04:59.757Z,99112.16
2019-01-14T23:07:28.754Z,99111.52
2019-01-14T23:09:57.519Z,99117.89
2019-01-14T23:12:26.398Z,99118.34
2019-01-14T23:14:55.209Z,99123.39
2019-01-14T23:17:24.000Z,99120.59
2019-01-14T23:19:52.784Z,99124.62
2019-01-14T23:22:21.902Z,99120.38
2019-01-14T23:24:50.791Z,99118.16
2019-01-14T23:27:19.693Z,99118.09
2019-01-14T23:29:48.539Z,99120.75
2019-01-14T23:32:18.324Z,99128.79
2019-01-14T23:34:47.201Z,99126.91
2019-01-14T23:37:16.141Z,99133.07
2019-01-14T23:39:45.006Z,99129.78
2019-01-14T23:42:13.897Z,99127.77
2019-01-14T23:44:42.749Z,99123.86
2019-01-14T23:47:11.570Z,99127.71
2019-01-14T23:49:40.374Z,99125.12
2019-01-14T23:52:09.233Z,99117.70
2019-01-14T23:54:38.032Z,99124.76
2019-01-14T23:57:06.918Z,99125.61
2019-01-14T23:59:35.761Z,99126.50
